sensor_id;sensor_type;location;lat;lon;timestamp;P1;durP1;ratioP1;P2;durP2;ratioP2
63536;SDS011;49686;51.880;5.632;2022-09-03T06:09:04;3.53;;;2.22;;
63536;SDS011;49686;51.880;5.632;2022-09-03T06:11:33;2.97;;;1.92;;
63536;SDS011;49686;51.880;5.632;2022-09-03T06:14:03;6.53;;;2.35;;
63536;SDS011;49686;51.880;5.632;2022-09-03T06:16:31;5.47;;;2.42;;
63536;SDS011;49686;51.880;5.632;2022-09-03T06:19:00;4.28;;;2.38;;
63536;SDS011;49686;51.880;5.632;2022-09-03T06:21:27;2.55;;;2.35;;
63536;SDS011;49686;51.880;5.632;2022-09-03T06:23:55;4.53;;;2.00;;
63536;SDS011;49686;51.880;5.632;2022-09-03T06:26:27;5.47;;;2.30;;
63536;SDS011;49686;51.880;5.632;2022-09-03T06:31:22;5.03;;;2.00;;
63536;SDS011;49686;51.880;5.632;2022-09-03T06:33:51;3.22;;;2.10;;
63536;SDS011;49686;51.880;5.632;2022-09-03T06:36:18;4.00;;;2.45;;
63536;SDS011;49686;51.880;5.632;2022-09-03T06:38:46;3.80;;;2.03;;
63536;SDS011;49686;51.880;5.632;2022-09-03T06:41:15;2.72;;;2.10;;
63536;SDS011;49686;51.880;5.632;2022-09-03T06:43:43;3.35;;;1.90;;
63536;SDS011;49686;51.880;5.632;2022-09-03T06:46:11;6.45;;;2.20;;
63536;SDS011;49686;51.880;5.632;2022-09-03T06:48:40;4.03;;;2.70;;
63536;SDS011;49686;51.880;5.632;2022-09-03T06:51:11;3.83;;;2.05;;
63536;SDS011;49686;51.880;5.632;2022-09-03T06:53:41;6.28;;;2.47;;
63536;SDS011;49686;51.880;5.632;2022-09-03T06:56:10;3.45;;;2.28;;
63536;SDS011;49686;51.880;5.632;2022-09-03T06:58:40;2.42;;;1.70;;
63536;SDS011;49686;51.880;5.632;2022-09-03T07:01:10;2.47;;;1.73;;
63536;SDS011;49686;51.880;5.632;2022-09-03T07:03:39;3.00;;;1.80;;
63536;SDS011;49686;51.880;5.632;2022-09-03T07:06:08;4.00;;;1.90;;
63536;SDS011;49686;51.880;5.632;2022-09-03T07:11:03;3.85;;;2.00;;
63536;SDS011;49686;51.880;5.632;2022-09-03T07:13:33;6.55;;;2.42;;
63536;SDS011;49686;51.880;5.632;2022-09-03T07:16:00;6.10;;;1.77;;
63536;SDS011;49686;51.880;5.632;2022-09-03T07:18:30;3.20;;;1.95;;
63536;SDS011;49686;51.880;5.632;2022-09-03T07:20:58;2.75;;;1.40;;
63536;SDS011;49686;51.880;5.632;2022-09-03T07:23:27;3.05;;;1.80;;
63536;SDS011;49686;51.880;5.632;2022-09-03T07:25:55;3.40;;;1.55;;
63536;SDS011;49686;51.880;5.632;2022-09-03T07:28:24;4.10;;;1.45;;
63536;SDS011;49686;51.880;5.632;2022-09-03T07:30:51;3.70;;;1.70;;
63536;SDS011;49686;51.880;5.632;2022-09-03T07:33:19;5.35;;;1.75;;
63536;SDS011;49686;51.880;5.632;2022-09-03T07:35:48;3.42;;;1.40;;
63536;SDS011;49686;51.880;5.632;2022-09-03T07:38:18;4.03;;;1.67;;
63536;SDS011;49686;51.880;5.632;2022-09-03T07:40:45;4.10;;;1.73;;
63536;SDS011;49686;51.880;5.632;2022-09-03T07:43:12;8.35;;;1.40;;
63536;SDS011;49686;51.880;5.632;2022-09-03T07:45:39;4.32;;;1.42;;
63536;SDS011;49686;51.880;5.632;2022-09-03T07:48:06;3.88;;;1.40;;
63536;SDS011;49686;51.880;5.632;2022-09-03T07:50:33;5.35;;;1.58;;
63536;SDS011;49686;51.880;5.632;2022-09-03T07:53:01;5.55;;;1.38;;
63536;SDS011;49686;51.880;5.632;2022-09-03T07:55:28;4.22;;;1.50;;
63536;SDS011;49686;51.880;5.632;2022-09-03T07:57:56;2.50;;;1.35;;
63536;SDS011;49686;51.880;5.632;2022-09-03T08:00:23;3.58;;;1.48;;
63536;SDS011;49686;51.880;5.632;2022-09-03T08:02:53;1.98;;;1.75;;
63536;SDS011;49686;51.880;5.632;2022-09-03T08:05:22;3.03;;;1.35;;
63536;SDS011;49686;51.880;5.632;2022-09-03T08:07:48;2.85;;;1.40;;
63536;SDS011;49686;51.880;5.632;2022-09-03T08:10:17;5.82;;;1.73;;
63536;SDS011;49686;51.880;5.632;2022-09-03T08:15:11;7.95;;;1.48;;
63536;SDS011;49686;51.880;5.632;2022-09-03T08:17:37;3.40;;;2.20;;
63536;SDS011;49686;51.880;5.632;2022-09-03T08:20:09;1.63;;;1.38;;
63536;SDS011;49686;51.880;5.632;2022-09-03T08:22:36;2.97;;;1.85;;
63536;SDS011;49686;51.880;5.632;2022-09-03T08:25:03;2.10;;;1.60;;
63536;SDS011;49686;51.880;5.632;2022-09-03T08:27:32;2.53;;;1.48;;
63536;SDS011;49686;51.880;5.632;2022-09-03T08:30:00;2.88;;;2.08;;
63536;SDS011;49686;51.880;5.632;2022-09-03T08:32:27;5.63;;;1.65;;
63536;SDS011;49686;51.880;5.632;2022-09-03T08:34:54;1.95;;;1.15;;
63536;SDS011;49686;51.880;5.632;2022-09-03T08:37:21;5.00;;;1.75;;
63536;SDS011;49686;51.880;5.632;2022-09-03T08:39:48;2.33;;;1.38;;
63536;SDS011;49686;51.880;5.632;2022-09-03T08:42:18;4.13;;;1.50;;
63536;SDS011;49686;51.880;5.632;2022-09-03T08:44:53;4.13;;;1.73;;
63536;SDS011;49686;51.880;5.632;2022-09-03T08:47:22;3.75;;;1.48;;
63536;SDS011;49686;51.880;5.632;2022-09-03T08:49:53;4.75;;;1.52;;
63536;SDS011;49686;51.880;5.632;2022-09-03T08:52:25;3.80;;;1.40;;
63536;SDS011;49686;51.880;5.632;2022-09-03T08:54:57;3.05;;;1.30;;
63536;SDS011;49686;51.880;5.632;2022-09-03T08:57:47;7.20;;;1.50;;
63536;SDS011;49686;51.880;5.632;2022-09-03T09:00:17;2.60;;;1.40;;
63536;SDS011;49686;51.880;5.632;2022-09-03T09:02:52;2.83;;;1.33;;
63536;SDS011;49686;51.880;5.632;2022-09-03T09:05:29;2.80;;;1.20;;
63536;SDS011;49686;51.880;5.632;2022-09-03T09:08:11;4.25;;;1.50;;
63536;SDS011;49686;51.880;5.632;2022-09-03T09:10:46;5.63;;;1.42;;
63536;SDS011;49686;51.880;5.632;2022-09-03T09:13:18;5.75;;;1.77;;
63536;SDS011;49686;51.880;5.632;2022-09-03T09:15:56;5.90;;;1.60;;
63536;SDS011;49686;51.880;5.632;2022-09-03T09:18:36;6.60;;;1.60;;
63536;SDS011;49686;51.880;5.632;2022-09-03T09:21:14;4.13;;;1.65;;
63536;SDS011;49686;51.880;5.632;2022-09-03T09:23:49;3.05;;;1.50;;
63536;SDS011;49686;51.880;5.632;2022-09-03T09:26:17;3.45;;;1.40;;
63536;SDS011;49686;51.880;5.632;2022-09-03T09:31:18;7.03;;;1.40;;
63536;SDS011;49686;51.880;5.632;2022-09-03T09:33:45;3.60;;;1.80;;
63536;SDS011;49686;51.880;5.632;2022-09-03T09:36:12;5.20;;;1.30;;
63536;SDS011;49686;51.880;5.632;2022-09-03T09:38:42;3.83;;;1.70;;
63536;SDS011;49686;51.880;5.632;2022-09-03T09:41:09;4.25;;;1.45;;
63536;SDS011;49686;51.880;5.632;2022-09-03T09:43:39;2.70;;;1.52;;
63536;SDS011;49686;51.880;5.632;2022-09-03T09:46:08;4.82;;;1.77;;
63536;SDS011;49686;51.880;5.632;2022-09-03T09:48:42;1.70;;;1.13;;
63536;SDS011;49686;51.880;5.632;2022-09-03T09:51:17;3.85;;;1.50;;
63536;SDS011;49686;51.880;5.632;2022-09-03T09:53:45;8.07;;;1.25;;
63536;SDS011;49686;51.880;5.632;2022-09-03T09:56:19;2.20;;;1.30;;
63536;SDS011;49686;51.880;5.632;2022-09-03T09:58:47;5.00;;;1.30;;
63536;SDS011;49686;51.880;5.632;2022-09-03T10:01:17;2.75;;;1.23;;
63536;SDS011;49686;51.880;5.632;2022-09-03T10:03:49;4.22;;;1.45;;
63536;SDS011;49686;51.880;5.632;2022-09-03T10:06:17;3.90;;;1.35;;
63536;SDS011;49686;51.880;5.632;2022-09-03T10:08:48;2.83;;;1.20;;
63536;SDS011;49686;51.880;5.632;2022-09-03T10:11:16;2.40;;;1.20;;
63536;SDS011;49686;51.880;5.632;2022-09-03T10:13:44;2.38;;;1.30;;
63536;SDS011;49686;51.880;5.632;2022-09-03T10:16:16;4.30;;;1.30;;
63536;SDS011;49686;51.880;5.632;2022-09-03T10:18:50;2.55;;;1.40;;
63536;SDS011;49686;51.880;5.632;2022-09-03T10:21:26;4.25;;;1.40;;
63536;SDS011;49686;51.880;5.632;2022-09-03T10:23:58;3.60;;;1.50;;
63536;SDS011;49686;51.880;5.632;2022-09-03T10:26:33;10.40;;;1.58;;
63536;SDS011;49686;51.880;5.632;2022-09-03T10:29:02;4.82;;;1.52;;
63536;SDS011;49686;51.880;5.632;2022-09-03T10:31:35;6.57;;;1.40;;
63536;SDS011;49686;51.880;5.632;2022-09-03T10:34:13;5.25;;;1.65;;
63536;SDS011;49686;51.880;5.632;2022-09-03T10:36:45;4.35;;;1.30;;
63536;SDS011;49686;51.880;5.632;2022-09-03T10:39:20;4.90;;;1.50;;
63536;SDS011;49686;51.880;5.632;2022-09-03T10:41:54;2.70;;;1.10;;
63536;SDS011;49686;51.880;5.632;2022-09-03T10:44:43;2.85;;;1.70;;
63536;SDS011;49686;51.880;5.632;2022-09-03T10:47:27;2.83;;;1.30;;
63536;SDS011;49686;51.880;5.632;2022-09-03T10:50:07;3.05;;;1.30;;
63536;SDS011;49686;51.880;5.632;2022-09-03T10:52:40;3.67;;;1.50;;
63536;SDS011;49686;51.880;5.632;2022-09-03T10:55:24;3.20;;;1.30;;
63536;SDS011;49686;51.880;5.632;2022-09-03T10:58:03;3.20;;;1.50;;
63536;SDS011;49686;51.880;5.632;2022-09-03T11:00:45;4.35;;;1.67;;
63536;SDS011;49686;51.880;5.632;2022-09-03T11:03:27;3.53;;;2.20;;
63536;SDS011;49686;51.880;5.632;2022-09-03T11:06:10;4.43;;;1.60;;
63536;SDS011;49686;51.880;5.632;2022-09-03T11:08:40;2.45;;;1.30;;
63536;SDS011;49686;51.880;5.632;2022-09-03T11:11:11;4.63;;;1.40;;
63536;SDS011;49686;51.880;5.632;2022-09-03T11:13:43;1.52;;;1.10;;
63536;SDS011;49686;51.880;5.632;2022-09-03T11:16:17;5.90;;;1.40;;
63536;SDS011;49686;51.880;5.632;2022-09-03T11:18:49;3.65;;;1.85;;
63536;SDS011;49686;51.880;5.632;2022-09-03T11:21:21;3.75;;;1.45;;
63536;SDS011;49686;51.880;5.632;2022-09-03T11:23:52;5.25;;;1.50;;
63536;SDS011;49686;51.880;5.632;2022-09-03T11:26:31;3.00;;;1.75;;
63536;SDS011;49686;51.880;5.632;2022-09-03T11:28:59;4.03;;;1.30;;
63536;SDS011;49686;51.880;5.632;2022-09-03T11:31:32;3.05;;;1.40;;
63536;SDS011;49686;51.880;5.632;2022-09-03T11:34:06;4.70;;;1.70;;
63536;SDS011;49686;51.880;5.632;2022-09-03T11:36:38;4.30;;;1.30;;
63536;SDS011;49686;51.880;5.632;2022-09-03T11:39:12;4.47;;;1.35;;
63536;SDS011;49686;51.880;5.632;2022-09-03T11:41:43;3.65;;;1.70;;
63536;SDS011;49686;51.880;5.632;2022-09-03T11:44:22;2.92;;;1.40;;
63536;SDS011;49686;51.880;5.632;2022-09-03T11:46:52;3.25;;;1.40;;
63536;SDS011;49686;51.880;5.632;2022-09-03T11:49:24;5.75;;;1.80;;
63536;SDS011;49686;51.880;5.632;2022-09-03T11:51:58;3.80;;;1.30;;
63536;SDS011;49686;51.880;5.632;2022-09-03T11:54:27;5.03;;;1.55;;
63536;SDS011;49686;51.880;5.632;2022-09-03T11:57:04;2.85;;;1.50;;
63536;SDS011;49686;51.880;5.632;2022-09-03T12:02:06;1.97;;;1.30;;
63536;SDS011;49686;51.880;5.632;2022-09-03T12:04:42;13.90;;;2.42;;
63536;SDS011;49686;51.880;5.632;2022-09-03T12:07:23;3.53;;;1.70;;
63536;SDS011;49686;51.880;5.632;2022-09-03T12:15:57;3.70;;;1.90;;
63536;SDS011;49686;51.880;5.632;2022-09-03T12:18:41;4.15;;;1.77;;
63536;SDS011;49686;51.880;5.632;2022-09-03T12:21:09;3.03;;;1.60;;
63536;SDS011;49686;51.880;5.632;2022-09-03T12:23:40;4.78;;;1.90;;
63536;SDS011;49686;51.880;5.632;2022-09-03T12:26:11;2.70;;;2.00;;
63536;SDS011;49686;51.880;5.632;2022-09-03T12:28:40;3.92;;;1.70;;
63536;SDS011;49686;51.880;5.632;2022-09-03T12:31:13;3.15;;;1.80;;
63536;SDS011;49686;51.880;5.632;2022-09-03T12:33:42;3.65;;;2.03;;
63536;SDS011;49686;51.880;5.632;2022-09-03T12:36:10;5.15;;;1.92;;
63536;SDS011;49686;51.880;5.632;2022-09-03T12:38:40;5.18;;;1.85;;
63536;SDS011;49686;51.880;5.632;2022-09-03T12:41:28;5.00;;;2.00;;
63536;SDS011;49686;51.880;5.632;2022-09-03T12:43:57;6.03;;;2.25;;
63536;SDS011;49686;51.880;5.632;2022-09-03T12:46:26;11.15;;;2.25;;
63536;SDS011;49686;51.880;5.632;2022-09-03T12:49:00;6.40;;;2.22;;
63536;SDS011;49686;51.880;5.632;2022-09-03T12:51:49;4.03;;;1.90;;
63536;SDS011;49686;51.880;5.632;2022-09-03T12:54:24;6.38;;;2.00;;
63536;SDS011;49686;51.880;5.632;2022-09-03T12:56:53;7.63;;;1.83;;
63536;SDS011;49686;51.880;5.632;2022-09-03T12:59:22;4.82;;;2.05;;
63536;SDS011;49686;51.880;5.632;2022-09-03T13:01:53;4.63;;;2.03;;
63536;SDS011;49686;51.880;5.632;2022-09-03T13:04:24;10.95;;;1.90;;
63536;SDS011;49686;51.880;5.632;2022-09-03T13:06:55;9.02;;;2.13;;
63536;SDS011;49686;51.880;5.632;2022-09-03T13:09:28;4.00;;;1.90;;
63536;SDS011;49686;51.880;5.632;2022-09-03T13:11:59;6.15;;;1.90;;
63536;SDS011;49686;51.880;5.632;2022-09-03T13:14:26;7.28;;;1.85;;
63536;SDS011;49686;51.880;5.632;2022-09-03T13:17:14;6.75;;;2.00;;
63536;SDS011;49686;51.880;5.632;2022-09-03T13:19:51;5.35;;;2.00;;
63536;SDS011;49686;51.880;5.632;2022-09-03T13:22:33;11.10;;;2.22;;
63536;SDS011;49686;51.880;5.632;2022-09-03T13:27:51;10.50;;;2.03;;
63536;SDS011;49686;51.880;5.632;2022-09-03T13:30:28;4.13;;;2.00;;
63536;SDS011;49686;51.880;5.632;2022-09-03T13:32:57;8.90;;;1.80;;
63536;SDS011;49686;51.880;5.632;2022-09-03T13:35:33;5.60;;;1.90;;
63536;SDS011;49686;51.880;5.632;2022-09-03T13:38:06;4.65;;;2.10;;
63536;SDS011;49686;51.880;5.632;2022-09-03T13:40:41;5.38;;;1.90;;
63536;SDS011;49686;51.880;5.632;2022-09-03T13:43:18;7.70;;;1.60;;
63536;SDS011;49686;51.880;5.632;2022-09-03T13:48:23;5.05;;;1.70;;
63536;SDS011;49686;51.880;5.632;2022-09-03T13:50:58;2.05;;;1.83;;
63536;SDS011;49686;51.880;5.632;2022-09-03T13:53:33;11.55;;;2.60;;
63536;SDS011;49686;51.880;5.632;2022-09-03T13:56:15;7.28;;;1.67;;
63536;SDS011;49686;51.880;5.632;2022-09-03T13:58:49;10.13;;;1.90;;
63536;SDS011;49686;51.880;5.632;2022-09-03T14:01:24;7.32;;;2.15;;
63536;SDS011;49686;51.880;5.632;2022-09-03T14:03:53;6.88;;;1.95;;
63536;SDS011;49686;51.880;5.632;2022-09-03T14:06:37;11.40;;;2.10;;
63536;SDS011;49686;51.880;5.632;2022-09-03T14:09:11;7.43;;;1.67;;
63536;SDS011;49686;51.880;5.632;2022-09-03T14:11:48;3.83;;;1.42;;
63536;SDS011;49686;51.880;5.632;2022-09-03T14:14:27;11.60;;;1.63;;
63536;SDS011;49686;51.880;5.632;2022-09-03T14:17:03;7.85;;;1.98;;
63536;SDS011;49686;51.880;5.632;2022-09-03T14:19:37;7.25;;;1.77;;
63536;SDS011;49686;51.880;5.632;2022-09-03T14:22:12;3.40;;;1.50;;
63536;SDS011;49686;51.880;5.632;2022-09-03T14:24:44;3.65;;;1.60;;
63536;SDS011;49686;51.880;5.632;2022-09-03T14:27:22;5.18;;;1.60;;
63536;SDS011;49686;51.880;5.632;2022-09-03T14:29:52;4.13;;;1.75;;
63536;SDS011;49686;51.880;5.632;2022-09-03T14:32:26;2.35;;;1.35;;
63536;SDS011;49686;51.880;5.632;2022-09-03T14:34:59;5.22;;;1.90;;
63536;SDS011;49686;51.880;5.632;2022-09-03T14:37:46;2.88;;;1.63;;
63536;SDS011;49686;51.880;5.632;2022-09-03T14:40:24;4.05;;;1.55;;
63536;SDS011;49686;51.880;5.632;2022-09-03T14:43:01;9.23;;;1.70;;
63536;SDS011;49686;51.880;5.632;2022-09-03T14:45:51;4.10;;;1.50;;
63536;SDS011;49686;51.880;5.632;2022-09-03T14:48:42;8.68;;;2.10;;
63536;SDS011;49686;51.880;5.632;2022-09-03T14:51:24;15.80;;;1.90;;
63536;SDS011;49686;51.880;5.632;2022-09-03T14:54:10;6.22;;;1.58;;
63536;SDS011;49686;51.880;5.632;2022-09-03T14:56:59;10.20;;;1.63;;
63536;SDS011;49686;51.880;5.632;2022-09-03T14:59:44;7.18;;;1.60;;
63536;SDS011;49686;51.880;5.632;2022-09-03T15:05:41;8.13;;;1.80;;
63536;SDS011;49686;51.880;5.632;2022-09-03T15:08:38;3.08;;;1.45;;
63536;SDS011;49686;51.880;5.632;2022-09-03T15:11:34;1.65;;;1.42;;
63536;SDS011;49686;51.880;5.632;2022-09-03T15:14:13;3.95;;;1.45;;
63536;SDS011;49686;51.880;5.632;2022-09-03T15:16:49;4.53;;;1.77;;
63536;SDS011;49686;51.880;5.632;2022-09-03T15:19:31;2.85;;;1.60;;
63536;SDS011;49686;51.880;5.632;2022-09-03T15:22:08;7.32;;;1.60;;
63536;SDS011;49686;51.880;5.632;2022-09-03T15:24:47;4.00;;;2.35;;
63536;SDS011;49686;51.880;5.632;2022-09-03T15:27:26;3.20;;;1.50;;
63536;SDS011;49686;51.880;5.632;2022-09-03T15:30:05;5.57;;;1.75;;
63536;SDS011;49686;51.880;5.632;2022-09-03T15:32:43;7.03;;;1.80;;
63536;SDS011;49686;51.880;5.632;2022-09-03T15:35:18;8.27;;;1.70;;
63536;SDS011;49686;51.880;5.632;2022-09-03T15:38:00;2.88;;;1.60;;
63536;SDS011;49686;51.880;5.632;2022-09-03T15:40:30;4.95;;;1.65;;
63536;SDS011;49686;51.880;5.632;2022-09-03T15:43:03;5.57;;;1.73;;
63536;SDS011;49686;51.880;5.632;2022-09-03T15:45:35;4.15;;;1.58;;
63536;SDS011;49686;51.880;5.632;2022-09-03T15:48:15;3.25;;;1.52;;
63536;SDS011;49686;51.880;5.632;2022-09-03T15:50:49;3.10;;;1.33;;
63536;SDS011;49686;51.880;5.632;2022-09-03T15:53:25;6.20;;;1.52;;
63536;SDS011;49686;51.880;5.632;2022-09-03T15:56:01;7.47;;;1.55;;
63536;SDS011;49686;51.880;5.632;2022-09-03T15:58:41;12.38;;;1.60;;
63536;SDS011;49686;51.880;5.632;2022-09-03T16:01:18;1.92;;;1.30;;
63536;SDS011;49686;51.880;5.632;2022-09-03T16:06:27;6.18;;;1.50;;
63536;SDS011;49686;51.880;5.632;2022-09-03T16:09:00;6.13;;;1.50;;
63536;SDS011;49686;51.880;5.632;2022-09-03T16:11:35;6.35;;;1.60;;
63536;SDS011;49686;51.880;5.632;2022-09-03T16:14:11;3.05;;;1.52;;
63536;SDS011;49686;51.880;5.632;2022-09-03T16:16:50;3.92;;;1.92;;
63536;SDS011;49686;51.880;5.632;2022-09-03T16:19:25;5.25;;;1.55;;
63536;SDS011;49686;51.880;5.632;2022-09-03T16:21:59;2.42;;;1.50;;
63536;SDS011;49686;51.880;5.632;2022-09-03T16:24:31;4.20;;;1.55;;
63536;SDS011;49686;51.880;5.632;2022-09-03T16:27:04;4.60;;;1.50;;
63536;SDS011;49686;51.880;5.632;2022-09-03T16:29:37;4.05;;;1.50;;
63536;SDS011;49686;51.880;5.632;2022-09-03T16:32:06;3.05;;;1.77;;
63536;SDS011;49686;51.880;5.632;2022-09-03T16:34:48;2.63;;;1.50;;
63536;SDS011;49686;51.880;5.632;2022-09-03T16:37:24;10.85;;;1.42;;
63536;SDS011;49686;51.880;5.632;2022-09-03T16:40:00;6.03;;;1.80;;
63536;SDS011;49686;51.880;5.632;2022-09-03T16:42:38;1.70;;;1.38;;
63536;SDS011;49686;51.880;5.632;2022-09-03T16:45:13;2.15;;;1.67;;
63536;SDS011;49686;51.880;5.632;2022-09-03T16:47:54;4.65;;;1.60;;
63536;SDS011;49686;51.880;5.632;2022-09-03T16:50:38;5.47;;;1.60;;
63536;SDS011;49686;51.880;5.632;2022-09-03T16:53:18;3.92;;;1.50;;
63536;SDS011;49686;51.880;5.632;2022-09-03T16:55:56;3.10;;;1.85;;
63536;SDS011;49686;51.880;5.632;2022-09-03T16:58:43;3.08;;;1.48;;
63536;SDS011;49686;51.880;5.632;2022-09-03T17:01:21;6.55;;;1.60;;
63536;SDS011;49686;51.880;5.632;2022-09-03T17:04:22;6.82;;;1.67;;
63536;SDS011;49686;51.880;5.632;2022-09-03T17:07:12;5.78;;;1.60;;
63536;SDS011;49686;51.880;5.632;2022-09-03T17:09:52;4.47;;;1.60;;
63536;SDS011;49686;51.880;5.632;2022-09-03T17:12:30;4.20;;;1.58;;
63536;SDS011;49686;51.880;5.632;2022-09-03T17:15:06;6.60;;;1.85;;
63536;SDS011;49686;51.880;5.632;2022-09-03T17:18:02;5.88;;;2.40;;
63536;SDS011;49686;51.880;5.632;2022-09-03T17:20:46;2.78;;;1.70;;
63536;SDS011;49686;51.880;5.632;2022-09-03T17:23:26;5.82;;;2.03;;
63536;SDS011;49686;51.880;5.632;2022-09-03T17:26:19;5.72;;;1.70;;
63536;SDS011;49686;51.880;5.632;2022-09-03T17:28:56;6.05;;;1.90;;
63536;SDS011;49686;51.880;5.632;2022-09-03T17:31:31;5.25;;;2.20;;
63536;SDS011;49686;51.880;5.632;2022-09-03T17:34:13;8.75;;;2.17;;
63536;SDS011;49686;51.880;5.632;2022-09-03T17:36:49;5.85;;;2.40;;
63536;SDS011;49686;51.880;5.632;2022-09-03T17:42:21;11.10;;;3.40;;
63536;SDS011;49686;51.880;5.632;2022-09-03T17:44:57;10.68;;;2.67;;
63536;SDS011;49686;51.880;5.632;2022-09-03T17:47:38;6.43;;;2.42;;
63536;SDS011;49686;51.880;5.632;2022-09-03T17:50:19;3.53;;;2.15;;
63536;SDS011;49686;51.880;5.632;2022-09-03T17:52:50;5.47;;;2.30;;
63536;SDS011;49686;51.880;5.632;2022-09-03T17:55:23;10.30;;;2.90;;
63536;SDS011;49686;51.880;5.632;2022-09-03T17:57:56;4.78;;;2.30;;
63536;SDS011;49686;51.880;5.632;2022-09-03T18:00:31;5.00;;;2.10;;
63536;SDS011;49686;51.880;5.632;2022-09-03T18:03:04;6.60;;;2.05;;
63536;SDS011;49686;51.880;5.632;2022-09-03T18:05:41;5.63;;;1.80;;
63536;SDS011;49686;51.880;5.632;2022-09-03T18:08:12;10.70;;;2.05;;
63536;SDS011;49686;51.880;5.632;2022-09-03T18:10:48;8.23;;;1.88;;
63536;SDS011;49686;51.880;5.632;2022-09-03T18:13:23;8.00;;;1.98;;
63536;SDS011;49686;51.880;5.632;2022-09-03T18:15:58;9.70;;;2.38;;
63536;SDS011;49686;51.880;5.632;2022-09-03T18:18:32;4.47;;;2.13;;
63536;SDS011;49686;51.880;5.632;2022-09-03T18:21:04;5.53;;;2.40;;
63536;SDS011;49686;51.880;5.632;2022-09-03T18:23:56;3.53;;;2.45;;
63536;SDS011;49686;51.880;5.632;2022-09-03T18:26:32;5.32;;;2.60;;
63536;SDS011;49686;51.880;5.632;2022-09-03T18:29:06;10.55;;;3.28;;
63536;SDS011;49686;51.880;5.632;2022-09-03T18:31:38;4.32;;;2.60;;
63536;SDS011;49686;51.880;5.632;2022-09-03T18:34:05;7.75;;;3.05;;
63536;SDS011;49686;51.880;5.632;2022-09-03T18:36:33;9.30;;;2.85;;
63536;SDS011;49686;51.880;5.632;2022-09-03T18:39:05;6.75;;;2.90;;
63536;SDS011;49686;51.880;5.632;2022-09-03T18:41:43;6.00;;;2.83;;
63536;SDS011;49686;51.880;5.632;2022-09-03T18:44:24;5.57;;;2.45;;
63536;SDS011;49686;51.880;5.632;2022-09-03T18:47:01;2.67;;;2.33;;
63536;SDS011;49686;51.880;5.632;2022-09-03T18:49:57;5.45;;;2.50;;
63536;SDS011;49686;51.880;5.632;2022-09-03T18:52:31;7.63;;;2.75;;
63536;SDS011;49686;51.880;5.632;2022-09-03T18:55:09;3.75;;;2.63;;
63536;SDS011;49686;51.880;5.632;2022-09-03T18:57:49;6.35;;;3.08;;
63536;SDS011;49686;51.880;5.632;2022-09-03T19:00:25;9.98;;;3.00;;
63536;SDS011;49686;51.880;5.632;2022-09-03T19:03:03;3.83;;;2.65;;
63536;SDS011;49686;51.880;5.632;2022-09-03T19:05:42;3.08;;;2.65;;
63536;SDS011;49686;51.880;5.632;2022-09-03T19:08:18;3.97;;;2.60;;
63536;SDS011;49686;51.880;5.632;2022-09-03T19:10:53;7.50;;;2.70;;
63536;SDS011;49686;51.880;5.632;2022-09-03T19:13:26;5.22;;;2.70;;
63536;SDS011;49686;51.880;5.632;2022-09-03T19:15:58;4.55;;;3.10;;
63536;SDS011;49686;51.880;5.632;2022-09-03T19:18:34;4.57;;;2.80;;
63536;SDS011;49686;51.880;5.632;2022-09-03T19:21:26;6.93;;;3.10;;
63536;SDS011;49686;51.880;5.632;2022-09-03T19:23:58;4.07;;;3.00;;
63536;SDS011;49686;51.880;5.632;2022-09-03T19:26:29;4.97;;;3.50;;
63536;SDS011;49686;51.880;5.632;2022-09-03T19:29:06;4.97;;;3.30;;
63536;SDS011;49686;51.880;5.632;2022-09-03T19:31:49;3.83;;;3.05;;
63536;SDS011;49686;51.880;5.632;2022-09-03T19:34:25;6.05;;;2.92;;
63536;SDS011;49686;51.880;5.632;2022-09-03T19:37:14;4.95;;;3.00;;
63536;SDS011;49686;51.880;5.632;2022-09-03T19:39:49;5.55;;;3.53;;
63536;SDS011;49686;51.880;5.632;2022-09-03T19:42:32;5.35;;;3.67;;
63536;SDS011;49686;51.880;5.632;2022-09-03T19:45:12;7.43;;;4.07;;
63536;SDS011;49686;51.880;5.632;2022-09-03T19:47:50;8.37;;;4.70;;
63536;SDS011;49686;51.880;5.632;2022-09-03T19:50:28;11.20;;;8.55;;
63536;SDS011;49686;51.880;5.632;2022-09-03T19:53:00;9.63;;;4.75;;
63536;SDS011;49686;51.880;5.632;2022-09-03T19:55:31;10.85;;;4.32;;
63536;SDS011;49686;51.880;5.632;2022-09-03T19:58:00;11.13;;;4.30;;
63536;SDS011;49686;51.880;5.632;2022-09-03T20:00:29;7.60;;;4.10;;
63536;SDS011;49686;51.880;5.632;2022-09-03T20:03:00;5.85;;;3.88;;
63536;SDS011;49686;51.880;5.632;2022-09-03T20:05:31;8.57;;;4.18;;
63536;SDS011;49686;51.880;5.632;2022-09-03T20:08:00;7.63;;;3.85;;
63536;SDS011;49686;51.880;5.632;2022-09-03T20:10:27;6.22;;;3.55;;
63536;SDS011;49686;51.880;5.632;2022-09-03T20:12:59;5.03;;;3.67;;
63536;SDS011;49686;51.880;5.632;2022-09-03T20:18:14;5.45;;;4.22;;
63536;SDS011;49686;51.880;5.632;2022-09-03T20:20:51;8.13;;;4.20;;
63536;SDS011;49686;51.880;5.632;2022-09-03T20:23:26;6.53;;;4.03;;
63536;SDS011;49686;51.880;5.632;2022-09-03T20:26:04;7.13;;;4.45;;
63536;SDS011;49686;51.880;5.632;2022-09-03T20:28:55;5.25;;;3.83;;
63536;SDS011;49686;51.880;5.632;2022-09-03T20:31:39;5.97;;;4.15;;
63536;SDS011;49686;51.880;5.632;2022-09-03T20:34:19;7.85;;;4.13;;
63536;SDS011;49686;51.880;5.632;2022-09-03T20:37:01;10.23;;;4.25;;
63536;SDS011;49686;51.880;5.632;2022-09-03T20:39:41;10.25;;;5.10;;
63536;SDS011;49686;51.880;5.632;2022-09-03T20:42:21;10.30;;;5.22;;
63536;SDS011;49686;51.880;5.632;2022-09-03T20:45:01;13.07;;;6.15;;
63536;SDS011;49686;51.880;5.632;2022-09-03T20:47:44;11.55;;;6.30;;
63536;SDS011;49686;51.880;5.632;2022-09-03T20:50:20;14.10;;;6.28;;
63536;SDS011;49686;51.880;5.632;2022-09-03T20:52:56;16.60;;;6.07;;
63536;SDS011;49686;51.880;5.632;2022-09-03T20:55:32;9.98;;;6.70;;
63536;SDS011;49686;51.880;5.632;2022-09-03T20:58:03;8.75;;;6.35;;
63536;SDS011;49686;51.880;5.632;2022-09-03T21:00:42;10.40;;;6.63;;
63536;SDS011;49686;51.880;5.632;2022-09-03T21:03:15;9.02;;;6.25;;
63536;SDS011;49686;51.880;5.632;2022-09-03T21:05:49;11.50;;;6.70;;
63536;SDS011;49686;51.880;5.632;2022-09-03T21:08:42;10.52;;;6.70;;
63536;SDS011;49686;51.880;5.632;2022-09-03T21:11:18;13.30;;;7.20;;
63536;SDS011;49686;51.880;5.632;2022-09-03T21:13:55;16.52;;;6.72;;
63536;SDS011;49686;51.880;5.632;2022-09-03T21:16:33;9.55;;;6.70;;
63536;SDS011;49686;51.880;5.632;2022-09-03T21:19:10;10.60;;;6.68;;
63536;SDS011;49686;51.880;5.632;2022-09-03T21:21:47;14.20;;;6.78;;
63536;SDS011;49686;51.880;5.632;2022-09-03T21:24:21;10.55;;;6.43;;
63536;SDS011;49686;51.880;5.632;2022-09-03T21:26:58;10.38;;;6.32;;
63536;SDS011;49686;51.880;5.632;2022-09-03T21:29:29;9.00;;;6.93;;
63536;SDS011;49686;51.880;5.632;2022-09-03T21:32:05;8.02;;;6.70;;
63536;SDS011;49686;51.880;5.632;2022-09-03T21:34:38;9.77;;;7.28;;
63536;SDS011;49686;51.880;5.632;2022-09-03T21:37:09;7.90;;;6.95;;
63536;SDS011;49686;51.880;5.632;2022-09-03T21:39:39;10.15;;;7.55;;
63536;SDS011;49686;51.880;5.632;2022-09-03T21:42:10;7.70;;;6.50;;
63536;SDS011;49686;51.880;5.632;2022-09-03T21:44:44;8.32;;;7.47;;
63536;SDS011;49686;51.880;5.632;2022-09-03T21:47:17;10.27;;;8.00;;
63536;SDS011;49686;51.880;5.632;2022-09-03T21:49:51;13.10;;;8.18;;
63536;SDS011;49686;51.880;5.632;2022-09-03T21:52:31;11.07;;;8.52;;
63536;SDS011;49686;51.880;5.632;2022-09-03T21:55:17;9.93;;;8.88;;
63536;SDS011;49686;51.880;5.632;2022-09-03T21:57:49;9.48;;;8.45;;
63536;SDS011;49686;51.880;5.632;2022-09-03T22:00:25;10.10;;;8.35;;
63536;SDS011;49686;51.880;5.632;2022-09-03T22:02:52;10.77;;;8.90;;
63536;SDS011;49686;51.880;5.632;2022-09-03T22:05:20;9.75;;;8.65;;
63536;SDS011;49686;51.880;5.632;2022-09-03T22:07:52;11.93;;;9.27;;
63536;SDS011;49686;51.880;5.632;2022-09-03T22:10:30;10.55;;;9.02;;
63536;SDS011;49686;51.880;5.632;2022-09-03T22:13:03;9.65;;;8.65;;